createdAt,value
2022-08-03T00:00:26.432Z,22.93
2022-08-03T00:02:53.354Z,22.88
2022-08-03T00:05:19.852Z,22.87
2022-08-03T00:07:46.305Z,22.87
2022-08-03T00:10:15.027Z,22.89
2022-08-03T00:12:41.432Z,22.86
2022-08-03T00:15:11.415Z,22.83
2022-08-03T00:17:53.051Z,22.76
2022-08-03T00:20:21.215Z,22.77
2022-08-03T00:22:47.635Z,22.76
2022-08-03T00:25:14.128Z,22.70
2022-08-03T00:27:40.529Z,22.69
2022-08-03T00:30:07.562Z,22.70
2022-08-03T00:32:34.000Z,22.68
2022-08-03T00:35:00.475Z,22.66
2022-08-03T00:37:41.578Z,22.64
2022-08-03T00:40:13.323Z,22.54
2022-08-03T00:43:01.620Z,22.53
2022-08-03T00:45:33.880Z,22.48
2022-08-03T00:48:01.442Z,22.41
2022-08-03T00:50:34.607Z,22.39
2022-08-03T00:53:03.057Z,22.37
2022-08-03T00:55:29.594Z,22.38
2022-08-03T00:57:56.746Z,22.38
2022-08-03T01:00:25.712Z,22.36
2022-08-03T01:02:52.927Z,22.34
2022-08-03T01:05:29.011Z,22.28
2022-08-03T01:08:28.246Z,22.24
2022-08-03T01:11:06.722Z,22.23
2022-08-03T01:14:01.080Z,22.22
2022-08-03T01:16:43.564Z,22.21
2022-08-03T01:19:54.672Z,22.20
2022-08-03T01:22:50.048Z,22.16
2022-08-03T01:25:25.507Z,22.17
2022-08-03T01:28:02.290Z,22.14
2022-08-03T01:30:32.390Z,22.11
2022-08-03T01:33:03.710Z,22.03
2022-08-03T01:35:50.557Z,21.96
2022-08-03T01:38:34.151Z,21.88
2022-08-03T01:41:08.154Z,21.81
2022-08-03T01:44:28.231Z,21.82
2022-08-03T01:46:25.638Z,21.79
2022-08-03T01:48:53.029Z,21.74
2022-08-03T01:51:20.974Z,21.75
2022-08-03T01:53:50.015Z,21.78
2022-08-03T01:56:19.111Z,21.72
2022-08-03T01:58:48.501Z,21.69
2022-08-03T02:01:16.921Z,21.69
2022-08-03T02:03:59.504Z,21.69
2022-08-03T02:07:00.362Z,21.60
2022-08-03T02:09:20.360Z,21.53
2022-08-03T02:11:47.487Z,21.52
2022-08-03T02:14:14.896Z,21.48
2022-08-03T02:16:43.309Z,21.43
2022-08-03T02:19:11.062Z,21.45
2022-08-03T02:21:57.194Z,21.46
2022-08-03T02:24:25.142Z,21.48
2022-08-03T02:26:54.022Z,21.49
2022-08-03T02:29:38.661Z,21.51
2022-08-03T02:32:10.358Z,21.42
2022-08-03T02:34:37.705Z,21.39
2022-08-03T02:37:05.067Z,21.38
2022-08-03T02:39:35.544Z,21.34
2022-08-03T02:42:03.133Z,21.32
2022-08-03T02:44:32.852Z,21.32
2022-08-03T02:47:03.942Z,21.32
2022-08-03T02:49:41.186Z,21.32
2022-08-03T02:52:21.276Z,21.29
2022-08-03T02:54:51.125Z,21.28
2022-08-03T02:57:21.347Z,21.27
2022-08-03T02:59:49.467Z,21.24
2022-08-03T03:02:18.714Z,21.24
2022-08-03T03:05:51.067Z,21.21
2022-08-03T03:07:46.885Z,21.19
2022-08-03T03:10:18.694Z,21.18
2022-08-03T03:12:46.541Z,21.12
2022-08-03T03:15:12.996Z,21.09
2022-08-03T03:17:39.663Z,21.12
2022-08-03T03:20:07.733Z,21.09
2022-08-03T03:22:35.396Z,21.06
2022-08-03T03:25:02.432Z,21.00
2022-08-03T03:27:29.721Z,21.03
2022-08-03T03:29:57.705Z,21.01
2022-08-03T03:32:24.392Z,21.01
2022-08-03T03:34:51.032Z,20.99
2022-08-03T03:37:17.637Z,20.99
2022-08-03T03:39:44.173Z,20.93
2022-08-03T03:42:11.028Z,20.88
2022-08-03T03:44:37.581Z,20.87
2022-08-03T03:47:04.149Z,20.87
2022-08-03T03:49:31.798Z,20.82
2022-08-03T03:51:58.422Z,20.73
2022-08-03T03:54:25.418Z,20.72
2022-08-03T03:56:54.639Z,20.70
2022-08-03T03:59:21.119Z,20.74
2022-08-03T04:01:47.653Z,20.77
2022-08-03T04:04:43.879Z,20.72
2022-08-03T04:07:29.231Z,20.66
2022-08-03T04:10:15.967Z,20.53
2022-08-03T04:12:50.487Z,20.45
2022-08-03T04:15:20.895Z,20.48
2022-08-03T04:17:50.207Z,20.54
2022-08-03T04:20:23.111Z,20.53
2022-08-03T04:22:51.559Z,20.49
2022-08-03T04:25:20.815Z,20.44
2022-08-03T04:28:28.366Z,20.43
2022-08-03T04:30:40.807Z,20.41
2022-08-03T04:33:08.224Z,20.47
2022-08-03T04:36:01.292Z,20.56
2022-08-03T04:38:25.302Z,20.61
2022-08-03T04:40:52.848Z,20.67
2022-08-03T04:43:22.480Z,20.74
2022-08-03T04:45:50.058Z,20.76
2022-08-03T04:48:17.335Z,20.80
2022-08-03T04:50:44.366Z,20.81
2022-08-03T04:53:10.825Z,20.81
2022-08-03T04:55:37.291Z,20.86
2022-08-03T04:58:04.308Z,20.94
2022-08-03T05:00:30.858Z,21.04
2022-08-03T05:02:57.485Z,21.16
2022-08-03T05:05:24.269Z,21.29
2022-08-03T05:07:51.170Z,21.41
2022-08-03T05:10:18.154Z,21.50
2022-08-03T05:12:46.395Z,21.64
2022-08-03T05:15:13.244Z,21.71
2022-08-03T05:17:40.330Z,21.79
2022-08-03T05:20:07.347Z,21.88
2022-08-03T05:22:33.787Z,21.93
2022-08-03T05:25:01.596Z,21.95
2022-08-03T05:27:28.016Z,21.91
2022-08-03T05:29:54.432Z,21.96
2022-08-03T05:32:21.211Z,22.03
2022-08-03T05:34:47.814Z,22.11
2022-08-03T05:37:14.298Z,22.20
2022-08-03T05:39:40.777Z,22.31
2022-08-03T05:42:07.264Z,22.44
2022-08-03T05:44:33.673Z,22.52
2022-08-03T05:47:00.157Z,22.59
2022-08-03T05:49:26.681Z,22.75
2022-08-03T05:52:00.496Z,22.86
2022-08-03T05:54:56.847Z,22.99
2022-08-03T05:57:25.176Z,23.11
2022-08-03T05:59:54.793Z,23.22
2022-08-03T06:02:25.757Z,23.38
2022-08-03T06:04:52.185Z,23.56
2022-08-03T06:07:18.599Z,23.77
2022-08-03T06:10:37.277Z,23.92
2022-08-03T06:12:31.863Z,24.08
2022-08-03T06:14:58.280Z,24.19
2022-08-03T06:17:24.728Z,24.29
2022-08-03T06:19:53.846Z,24.41
2022-08-03T06:22:20.665Z,24.55
2022-08-03T06:24:52.252Z,24.64
2022-08-03T06:27:20.503Z,24.71
2022-08-03T06:30:03.975Z,24.64
2022-08-03T06:32:30.395Z,24.68
2022-08-03T06:34:56.784Z,24.63
2022-08-03T06:37:24.490Z,24.75
2022-08-03T06:39:50.892Z,24.85
2022-08-03T06:42:17.551Z,24.99
2022-08-03T06:44:44.233Z,25.12
2022-08-03T06:47:10.723Z,25.21
2022-08-03T06:49:38.200Z,25.19
2022-08-03T06:52:07.038Z,25.28
2022-08-03T06:54:33.906Z,25.30
2022-08-03T06:57:00.697Z,25.37
2022-08-03T07:00:08.226Z,25.48
2022-08-03T07:02:19.058Z,25.57
2022-08-03T07:04:47.594Z,25.70
2022-08-03T07:07:14.095Z,25.86
2022-08-03T07:09:40.536Z,25.99
2022-08-03T07:12:08.391Z,26.06
2022-08-03T07:14:35.040Z,26.08
2022-08-03T07:17:01.443Z,26.10
2022-08-03T07:19:31.083Z,26.17
2022-08-03T07:22:00.161Z,26.24
2022-08-03T07:24:30.725Z,26.32
2022-08-03T07:26:57.270Z,26.40
2022-08-03T07:29:23.680Z,26.40
2022-08-03T07:31:50.145Z,26.57
2022-08-03T07:34:16.737Z,26.75
2022-08-03T07:36:43.128Z,26.82
2022-08-03T07:39:14.661Z,26.98
2022-08-03T07:41:44.397Z,27.10
2022-08-03T07:44:11.002Z,27.03
2022-08-03T07:46:37.504Z,27.01
2022-08-03T07:49:04.136Z,27.17
2022-08-03T07:51:30.670Z,27.30
2022-08-03T07:53:57.725Z,27.50
2022-08-03T07:56:28.192Z,27.56
2022-08-03T07:58:55.089Z,27.69
2022-08-03T08:01:22.232Z,27.85
2022-08-03T08:03:53.113Z,28.02
2022-08-03T08:06:21.434Z,28.10
2022-08-03T08:08:47.950Z,28.19
2022-08-03T08:11:14.768Z,28.10
2022-08-03T08:13:41.210Z,28.04
2022-08-03T08:16:07.729Z,28.08
2022-08-03T08:18:34.469Z,28.15
2022-08-03T08:21:03.157Z,28.28
2022-08-03T08:23:44.205Z,28.29
2022-08-03T08:26:12.571Z,28.40
2022-08-03T08:28:39.071Z,28.58
2022-08-03T08:31:05.543Z,28.74
2022-08-03T08:34:03.603Z,28.78
2022-08-03T08:36:19.512Z,28.87
2022-08-03T08:38:45.943Z,28.93
2022-08-03T08:41:14.616Z,28.99
2022-08-03T08:43:42.167Z,29.00
2022-08-03T08:46:11.954Z,29.11
2022-08-03T08:48:42.054Z,29.29
2022-08-03T08:51:11.451Z,29.49
2022-08-03T08:53:40.987Z,29.57
2022-08-03T08:56:10.218Z,29.63
2022-08-03T08:58:46.871Z,29.70
2022-08-03T09:01:13.468Z,29.74
2022-08-03T09:03:40.230Z,29.85
2022-08-03T09:06:06.760Z,29.82
2022-08-03T09:08:33.348Z,29.97
2022-08-03T09:11:00.258Z,29.99
2022-08-03T09:13:27.036Z,29.80
2022-08-03T09:16:14.554Z,29.82
2022-08-03T09:18:49.118Z,30.09
2022-08-03T09:21:32.131Z,30.32
2022-08-03T09:24:03.277Z,30.39
2022-08-03T09:26:31.637Z,30.43
2022-08-03T09:29:09.599Z,30.40
2022-08-03T09:31:43.297Z,30.20
2022-08-03T09:34:12.828Z,30.16
2022-08-03T09:36:45.732Z,30.34
2022-08-03T09:39:14.391Z,30.41
2022-08-03T09:41:43.228Z,30.57
2022-08-03T09:44:24.427Z,30.70
2022-08-03T09:46:55.637Z,30.72
2022-08-03T09:49:22.803Z,30.84
2022-08-03T09:52:32.866Z,31.02
2022-08-03T09:54:36.292Z,31.16
2022-08-03T09:57:02.952Z,31.33
2022-08-03T09:59:31.284Z,31.38
2022-08-03T10:01:59.866Z,31.22
2022-08-03T10:04:26.708Z,30.97
2022-08-03T10:07:05.319Z,30.97
2022-08-03T10:09:31.804Z,31.24
2022-08-03T10:12:07.994Z,31.30
2022-08-03T10:14:37.781Z,31.42
2022-08-03T10:17:04.326Z,31.60
2022-08-03T10:19:30.833Z,31.72
2022-08-03T10:22:03.262Z,31.81
2022-08-03T10:24:33.949Z,31.78
2022-08-03T10:27:04.145Z,31.82
2022-08-03T10:29:37.594Z,31.97
2022-08-03T10:32:09.690Z,32.18
2022-08-03T10:34:44.495Z,32.26
2022-08-03T10:37:13.273Z,32.38
2022-08-03T10:39:53.186Z,32.33
2022-08-03T10:42:27.166Z,32.28
2022-08-03T10:45:09.656Z,32.41
2022-08-03T10:47:36.748Z,32.43
2022-08-03T10:50:04.428Z,32.22
2022-08-03T10:52:32.966Z,32.35
2022-08-03T10:55:21.382Z,32.38
2022-08-03T10:57:58.946Z,32.50
2022-08-03T11:00:29.819Z,32.60
2022-08-03T11:03:08.572Z,32.73
2022-08-03T11:05:38.481Z,32.68
2022-08-03T11:08:28.862Z,32.61
2022-08-03T11:11:01.854Z,32.49
2022-08-03T11:13:31.865Z,32.29
2022-08-03T11:16:02.396Z,32.27
2022-08-03T11:18:30.785Z,32.39
2022-08-03T11:20:59.199Z,32.62
2022-08-03T11:24:05.457Z,32.79
2022-08-03T11:26:32.909Z,32.97
2022-08-03T11:29:29.357Z,33.19
2022-08-03T11:31:56.045Z,33.10
2022-08-03T11:34:24.343Z,32.99
2022-08-03T11:37:26.152Z,33.00
2022-08-03T11:39:54.850Z,33.04
2022-08-03T11:42:24.567Z,33.14
2022-08-03T11:44:53.305Z,33.28
2022-08-03T11:47:27.394Z,33.38
2022-08-03T11:49:59.025Z,33.43
2022-08-03T11:52:27.189Z,33.48
2022-08-03T11:54:57.115Z,33.46
2022-08-03T11:59:01.530Z,33.56
2022-08-03T12:00:26.067Z,33.41
2022-08-03T12:03:00.915Z,33.34
2022-08-03T12:05:54.680Z,33.47
2022-08-03T12:08:33.017Z,33.54
2022-08-03T12:11:02.959Z,33.36
2022-08-03T12:13:56.580Z,33.42
2022-08-03T12:16:32.263Z,33.45
2022-08-03T12:19:00.876Z,33.74
2022-08-03T12:21:28.721Z,33.90
2022-08-03T12:24:02.774Z,34.02
2022-08-03T12:26:30.494Z,34.10
2022-08-03T12:28:57.567Z,34.05
2022-08-03T12:31:24.806Z,33.86
2022-08-03T12:33:59.376Z,33.74
2022-08-03T12:36:26.701Z,33.70
2022-08-03T12:39:02.986Z,33.71
2022-08-03T12:41:39.412Z,33.97
2022-08-03T12:44:07.952Z,34.09
2022-08-03T12:46:37.113Z,34.02
2022-08-03T12:49:17.247Z,33.71
2022-08-03T12:51:43.704Z,33.58
2022-08-03T12:54:16.757Z,33.79
2022-08-03T12:57:00.720Z,33.92
2022-08-03T12:59:32.298Z,34.18
2022-08-03T13:02:02.839Z,34.40
2022-08-03T13:04:36.258Z,34.46
2022-08-03T13:07:14.180Z,34.39
2022-08-03T13:09:55.388Z,34.26
2022-08-03T13:12:22.750Z,34.31
2022-08-03T13:14:51.919Z,34.51
2022-08-03T13:17:20.093Z,34.63
2022-08-03T13:19:47.851Z,34.84
2022-08-03T13:22:17.450Z,34.98
2022-08-03T13:24:45.775Z,35.07
2022-08-03T13:28:13.888Z,35.17
2022-08-03T13:29:59.550Z,35.19
2022-08-03T13:32:26.058Z,35.23
2022-08-03T13:34:52.654Z,35.24
2022-08-03T13:37:19.605Z,35.22
2022-08-03T13:39:57.914Z,35.16
2022-08-03T13:42:28.276Z,35.08
2022-08-03T13:44:54.712Z,35.19
2022-08-03T13:47:21.507Z,35.12
2022-08-03T13:49:54.086Z,35.06
2022-08-03T13:52:32.472Z,35.13
2022-08-03T13:54:59.065Z,34.91
2022-08-03T13:58:11.874Z,34.83
2022-08-03T14:00:12.463Z,34.94
2022-08-03T14:02:38.920Z,35.13
2022-08-03T14:05:05.643Z,35.17
2022-08-03T14:07:32.107Z,34.89
2022-08-03T14:09:58.613Z,34.78
2022-08-03T14:12:25.090Z,34.72
2022-08-03T14:14:51.567Z,34.75
2022-08-03T14:17:18.485Z,35.00
2022-08-03T14:19:53.291Z,35.14
2022-08-03T14:22:21.179Z,35.22
2022-08-03T14:24:49.311Z,35.32
2022-08-03T14:27:16.447Z,35.25
2022-08-03T14:29:42.916Z,35.21
2022-08-03T14:32:12.910Z,35.12
2022-08-03T14:34:41.909Z,35.15
2022-08-03T14:37:08.427Z,35.25
2022-08-03T14:42:23.677Z,35.46
2022-08-03T14:44:50.135Z,35.54
2022-08-03T14:47:16.591Z,35.60
2022-08-03T14:50:38.921Z,35.62
2022-08-03T14:52:31.380Z,35.75
2022-08-03T14:54:58.620Z,35.60
2022-08-03T14:57:29.058Z,35.56
2022-08-03T14:59:57.112Z,35.63
2022-08-03T15:02:24.897Z,35.76
2022-08-03T15:04:52.070Z,35.90
2022-08-03T15:07:18.900Z,35.89
2022-08-03T15:09:45.721Z,35.90
2022-08-03T15:12:12.332Z,35.91
2022-08-03T15:14:38.871Z,35.91
2022-08-03T15:17:05.942Z,35.94
2022-08-03T15:20:02.236Z,35.93
2022-08-03T15:22:20.741Z,35.96
2022-08-03T15:24:51.684Z,35.99
2022-08-03T15:27:18.359Z,35.97
2022-08-03T15:30:05.855Z,36.06
2022-08-03T15:32:31.515Z,36.10
2022-08-03T15:34:57.985Z,35.97
2022-08-03T15:37:25.796Z,35.89
2022-08-03T15:39:58.865Z,35.94
2022-08-03T15:42:26.695Z,35.98
2022-08-03T15:44:53.983Z,35.98
2022-08-03T15:47:21.463Z,36.05
2022-08-03T15:49:48.096Z,35.92
2022-08-03T15:52:14.559Z,35.77
2022-08-03T15:54:41.219Z,35.67
2022-08-03T15:57:07.753Z,35.68
2022-08-03T15:59:34.194Z,35.74
2022-08-03T16:02:01.058Z,35.80
2022-08-03T16:04:27.509Z,35.70
2022-08-03T16:06:54.130Z,35.57
2022-08-03T16:09:23.369Z,35.45
2022-08-03T16:12:07.174Z,35.16
2022-08-03T16:14:51.846Z,34.81
2022-08-03T16:17:19.514Z,34.58
2022-08-03T16:19:46.283Z,34.37
2022-08-03T16:22:13.375Z,34.19
2022-08-03T16:24:41.260Z,34.05
2022-08-03T16:27:15.586Z,34.03
2022-08-03T16:29:54.355Z,33.96
2022-08-03T16:32:20.850Z,33.91
2022-08-03T16:34:48.186Z,33.85
2022-08-03T16:37:37.804Z,33.81
2022-08-03T16:40:02.199Z,33.75
2022-08-03T16:42:28.698Z,33.70
2022-08-03T16:44:55.137Z,33.69
2022-08-03T16:47:22.815Z,33.70
2022-08-03T16:49:55.508Z,33.65
2022-08-03T16:52:23.683Z,33.60
2022-08-03T16:54:53.532Z,33.55
2022-08-03T16:57:59.069Z,33.50
2022-08-03T17:00:33.939Z,33.44
2022-08-03T17:03:03.865Z,33.41
2022-08-03T17:05:43.591Z,33.37
2022-08-03T17:08:14.037Z,33.33
2022-08-03T17:10:45.510Z,33.29
2022-08-03T17:13:22.110Z,33.23
2022-08-03T17:16:01.408Z,33.18
2022-08-03T17:18:33.954Z,33.15
2022-08-03T17:21:05.708Z,33.13
2022-08-03T17:23:53.921Z,33.11
2022-08-03T17:26:23.168Z,33.07
2022-08-03T17:29:12.603Z,33.05
2022-08-03T17:31:49.005Z,32.97
2022-08-03T17:34:18.932Z,32.95
2022-08-03T17:39:57.663Z,32.95
2022-08-03T17:42:30.295Z,32.96
2022-08-03T17:45:06.586Z,32.91
2022-08-03T17:47:42.370Z,32.90
2022-08-03T17:50:24.724Z,32.95
2022-08-03T17:53:07.196Z,33.94
2022-08-03T17:55:57.042Z,35.72
2022-08-03T17:58:59.482Z,35.22
2022-08-03T18:02:00.245Z,34.36
2022-08-03T18:04:37.591Z,33.77
2022-08-03T18:07:12.536Z,33.33
2022-08-03T18:10:06.523Z,33.02
2022-08-03T18:12:54.488Z,32.77
2022-08-03T18:15:26.860Z,32.55
2022-08-03T18:18:02.473Z,32.38
2022-08-03T18:20:34.438Z,32.26
2022-08-03T18:23:05.585Z,32.16
2022-08-03T18:25:45.250Z,32.07
2022-08-03T18:28:16.511Z,31.94
2022-08-03T18:34:16.523Z,31.73
2022-08-03T18:36:30.313Z,31.67
2022-08-03T18:38:59.334Z,31.67
2022-08-03T18:41:32.994Z,31.66
2022-08-03T18:44:08.022Z,31.66
2022-08-03T18:46:43.041Z,31.59
2022-08-03T18:49:40.268Z,31.52
2022-08-03T18:52:53.203Z,31.42
2022-08-03T18:55:39.081Z,31.28
2022-08-03T18:58:34.526Z,31.09
2022-08-03T19:01:58.294Z,30.94
2022-08-03T19:04:31.256Z,30.84
2022-08-03T19:07:08.106Z,30.74
2022-08-03T19:09:47.956Z,30.76
2022-08-03T19:12:33.902Z,30.72
2022-08-03T19:15:12.438Z,30.67
2022-08-03T19:17:57.375Z,30.52
2022-08-03T19:20:30.729Z,30.40
2022-08-03T19:22:59.131Z,30.30
2022-08-03T19:25:35.423Z,30.18
2022-08-03T19:28:06.109Z,30.11
2022-08-03T19:30:40.033Z,30.05
2022-08-03T19:33:10.357Z,30.02
2022-08-03T19:35:54.638Z,30.01
2022-08-03T19:38:36.060Z,30.00
2022-08-03T19:41:05.624Z,29.96
2022-08-03T19:43:52.450Z,29.92
2022-08-03T19:46:27.627Z,29.85
2022-08-03T19:49:15.446Z,29.75
2022-08-03T19:52:00.635Z,29.66
2022-08-03T19:54:36.879Z,29.52
2022-08-03T19:57:18.623Z,29.42
2022-08-03T19:59:49.960Z,29.34
2022-08-03T20:02:26.206Z,29.26
2022-08-03T20:04:54.212Z,29.19
2022-08-03T20:07:22.783Z,29.13
2022-08-03T20:12:39.577Z,29.07
2022-08-03T20:15:07.039Z,29.02
2022-08-03T20:17:56.290Z,28.96
2022-08-03T20:20:25.236Z,28.84
2022-08-03T20:22:57.505Z,28.78
2022-08-03T20:25:38.681Z,28.78
2022-08-03T20:28:14.202Z,28.79
2022-08-03T20:30:43.625Z,28.76
2022-08-03T20:33:10.741Z,28.73
2022-08-03T20:35:37.375Z,28.72
2022-08-03T20:38:04.350Z,28.68
2022-08-03T20:40:31.473Z,28.60
2022-08-03T20:42:59.822Z,28.51
2022-08-03T20:46:00.113Z,28.40
2022-08-03T20:48:18.604Z,28.33
2022-08-03T20:50:49.275Z,28.24
2022-08-03T20:53:57.135Z,28.23
2022-08-03T20:56:04.764Z,28.21
2022-08-03T20:58:32.971Z,28.12
2022-08-03T21:01:00.338Z,28.06
2022-08-03T21:03:41.007Z,28.04
2022-08-03T21:06:19.247Z,28.04
2022-08-03T21:09:03.803Z,28.04
2022-08-03T21:11:41.404Z,27.96
2022-08-03T21:13:03.563Z,29.08
2022-08-03T21:13:05.228Z,31.85
2022-08-03T21:14:37.652Z,27.85
2022-08-03T21:17:14.076Z,27.77
2022-08-03T21:19:52.098Z,27.74
2022-08-03T21:22:25.959Z,27.74
2022-08-03T21:24:56.307Z,27.69
2022-08-03T21:27:25.020Z,27.61
2022-08-03T21:29:54.083Z,27.63
2022-08-03T21:32:32.321Z,27.54
2022-08-03T21:35:00.793Z,27.53
2022-08-03T21:37:28.569Z,27.45
2022-08-03T21:39:58.420Z,27.44
2022-08-03T21:42:25.175Z,27.37
2022-08-03T21:44:52.852Z,27.37
2022-08-03T21:47:21.667Z,27.33
2022-08-03T21:50:07.022Z,27.28
2022-08-03T21:52:40.626Z,27.24
2022-08-03T21:55:08.240Z,27.20
2022-08-03T21:57:37.721Z,27.14
2022-08-03T22:00:17.349Z,27.10
2022-08-03T22:02:58.203Z,27.07
2022-08-03T22:05:42.990Z,27.03
2022-08-03T22:08:15.350Z,27.02
2022-08-03T22:10:46.283Z,26.95
2022-08-03T22:13:15.025Z,26.93
2022-08-03T22:15:42.287Z,26.94
2022-08-03T22:18:09.280Z,26.92
2022-08-03T22:20:36.487Z,26.91
2022-08-03T22:23:05.693Z,26.86
2022-08-03T22:25:36.383Z,26.81
2022-08-03T22:28:07.489Z,26.77
2022-08-03T22:30:34.605Z,26.75
2022-08-03T22:33:03.932Z,26.69
2022-08-03T22:35:32.628Z,26.68
2022-08-03T22:38:13.762Z,26.61
2022-08-03T22:40:41.168Z,26.61
2022-08-03T22:43:08.070Z,26.55
2022-08-03T22:46:06.113Z,26.47
2022-08-03T22:48:22.979Z,26.41
2022-08-03T22:50:49.783Z,26.41
2022-08-03T22:53:21.476Z,26.37
2022-08-03T22:55:49.181Z,26.28
2022-08-03T22:58:16.180Z,26.21
2022-08-03T23:00:47.470Z,26.15
2022-08-03T23:03:58.764Z,26.07
2022-08-03T23:06:19.817Z,26.01
2022-08-03T23:08:48.371Z,26.00
2022-08-03T23:11:18.202Z,25.92
2022-08-03T23:13:49.376Z,25.91
2022-08-03T23:16:28.831Z,25.91
2022-08-03T23:18:57.794Z,25.89
2022-08-03T23:21:53.401Z,25.82
2022-08-03T23:24:29.870Z,25.73
2022-08-03T23:26:58.384Z,25.66
2022-08-03T23:29:30.398Z,25.63
2022-08-03T23:32:01.051Z,25.63
2022-08-03T23:34:46.811Z,25.68
2022-08-03T23:37:15.063Z,25.66
2022-08-03T23:39:46.103Z,25.61
2022-08-03T23:42:19.120Z,25.58
2022-08-03T23:44:46.939Z,25.55
2022-08-03T23:47:14.386Z,25.55
2022-08-03T23:49:41.251Z,25.51
2022-08-03T23:52:24.248Z,25.44
2022-08-03T23:54:58.498Z,25.49
2022-08-03T23:57:46.789Z,25.46
